sensor_id;sensor_type;location;lat;lon;timestamp;P1;durP1;ratioP1;P2;durP2;ratioP2
28774;SDS011;15926;51.348;6.596;2023-07-28T04:03:00;3.55;;;3.22;;
28774;SDS011;15926;51.348;6.596;2023-07-28T04:05:26;3.38;;;3.08;;
28774;SDS011;15926;51.348;6.596;2023-07-28T04:07:52;4.95;;;3.20;;
28774;SDS011;15926;51.348;6.596;2023-07-28T04:10:18;3.58;;;2.50;;
28774;SDS011;15926;51.348;6.596;2023-07-28T04:12:44;3.60;;;3.15;;
28774;SDS011;15926;51.348;6.596;2023-07-28T04:15:10;5.55;;;3.10;;
28774;SDS011;15926;51.348;6.596;2023-07-28T04:17:36;3.20;;;2.67;;
28774;SDS011;15926;51.348;6.596;2023-07-28T04:20:02;6.10;;;2.80;;
28774;SDS011;15926;51.348;6.596;2023-07-28T04:22:28;4.63;;;3.15;;
28774;SDS011;15926;51.348;6.596;2023-07-28T04:24:54;3.67;;;3.00;;
28774;SDS011;15926;51.348;6.596;2023-07-28T04:27:20;3.13;;;2.85;;
28774;SDS011;15926;51.348;6.596;2023-07-28T04:29:46;6.20;;;2.90;;
28774;SDS011;15926;51.348;6.596;2023-07-28T04:32:12;4.38;;;3.15;;
28774;SDS011;15926;51.348;6.596;2023-07-28T04:34:38;5.22;;;3.60;;
28774;SDS011;15926;51.348;6.596;2023-07-28T04:37:04;3.20;;;3.00;;
28774;SDS011;15926;51.348;6.596;2023-07-28T04:39:30;3.03;;;2.83;;
28774;SDS011;15926;51.348;6.596;2023-07-28T04:41:56;3.80;;;3.03;;
28774;SDS011;15926;51.348;6.596;2023-07-28T04:44:22;3.63;;;2.90;;
28774;SDS011;15926;51.348;6.596;2023-07-28T04:46:48;2.90;;;2.70;;
28774;SDS011;15926;51.348;6.596;2023-07-28T04:49:14;4.50;;;3.45;;
28774;SDS011;15926;51.348;6.596;2023-07-28T04:51:40;3.60;;;3.28;;
28774;SDS011;15926;51.348;6.596;2023-07-28T04:54:06;4.07;;;2.88;;
28774;SDS011;15926;51.348;6.596;2023-07-28T04:56:32;3.80;;;3.30;;
28774;SDS011;15926;51.348;6.596;2023-07-28T04:58:58;5.00;;;3.55;;
28774;SDS011;15926;51.348;6.596;2023-07-28T05:01:24;3.55;;;3.15;;
28774;SDS011;15926;51.348;6.596;2023-07-28T05:03:50;4.88;;;3.58;;
28774;SDS011;15926;51.348;6.596;2023-07-28T05:06:16;4.03;;;3.60;;
28774;SDS011;15926;51.348;6.596;2023-07-28T05:08:43;5.68;;;3.35;;
28774;SDS011;15926;51.348;6.596;2023-07-28T05:11:09;5.13;;;4.10;;
28774;SDS011;15926;51.348;6.596;2023-07-28T05:13:35;3.78;;;3.35;;
28774;SDS011;15926;51.348;6.596;2023-07-28T05:16:00;3.70;;;3.40;;
28774;SDS011;15926;51.348;6.596;2023-07-28T05:18:26;3.95;;;3.63;;
28774;SDS011;15926;51.348;6.596;2023-07-28T05:20:52;5.20;;;3.47;;
28774;SDS011;15926;51.348;6.596;2023-07-28T05:23:19;4.22;;;3.70;;
28774;SDS011;15926;51.348;6.596;2023-07-28T05:25:45;5.53;;;4.28;;
28774;SDS011;15926;51.348;6.596;2023-07-28T05:28:11;3.95;;;3.63;;
28774;SDS011;15926;51.348;6.596;2023-07-28T05:30:37;4.47;;;3.83;;
28774;SDS011;15926;51.348;6.596;2023-07-28T05:33:03;6.22;;;3.63;;
28774;SDS011;15926;51.348;6.596;2023-07-28T05:35:29;6.97;;;3.95;;
28774;SDS011;15926;51.348;6.596;2023-07-28T05:37:55;7.75;;;3.80;;
28774;SDS011;15926;51.348;6.596;2023-07-28T05:40:21;5.07;;;3.95;;
28774;SDS011;15926;51.348;6.596;2023-07-28T05:42:47;5.30;;;4.00;;
28774;SDS011;15926;51.348;6.596;2023-07-28T05:45:13;5.95;;;4.03;;
28774;SDS011;15926;51.348;6.596;2023-07-28T05:47:39;4.18;;;3.63;;
28774;SDS011;15926;51.348;6.596;2023-07-28T05:50:05;5.50;;;4.55;;
28774;SDS011;15926;51.348;6.596;2023-07-28T05:52:31;9.15;;;3.70;;
28774;SDS011;15926;51.348;6.596;2023-07-28T05:54:57;5.35;;;4.13;;
28774;SDS011;15926;51.348;6.596;2023-07-28T05:57:23;6.63;;;4.45;;
28774;SDS011;15926;51.348;6.596;2023-07-28T05:59:49;6.07;;;3.80;;
28774;SDS011;15926;51.348;6.596;2023-07-28T06:02:16;4.07;;;3.67;;
28774;SDS011;15926;51.348;6.596;2023-07-28T06:04:42;6.10;;;4.55;;
28774;SDS011;15926;51.348;6.596;2023-07-28T06:07:09;7.30;;;4.05;;
28774;SDS011;15926;51.348;6.596;2023-07-28T06:09:35;7.53;;;4.28;;
28774;SDS011;15926;51.348;6.596;2023-07-28T06:12:01;8.27;;;4.82;;
28774;SDS011;15926;51.348;6.596;2023-07-28T06:14:27;7.07;;;5.07;;
28774;SDS011;15926;51.348;6.596;2023-07-28T06:16:53;5.72;;;4.88;;
28774;SDS011;15926;51.348;6.596;2023-07-28T06:19:19;6.03;;;4.50;;
28774;SDS011;15926;51.348;6.596;2023-07-28T06:21:49;7.75;;;4.20;;
28774;SDS011;15926;51.348;6.596;2023-07-28T06:24:16;5.43;;;4.47;;
28774;SDS011;15926;51.348;6.596;2023-07-28T06:26:42;4.50;;;4.07;;
28774;SDS011;15926;51.348;6.596;2023-07-28T06:29:07;6.38;;;4.22;;
28774;SDS011;15926;51.348;6.596;2023-07-28T06:31:33;5.25;;;4.35;;
28774;SDS011;15926;51.348;6.596;2023-07-28T06:33:59;7.15;;;4.82;;
28774;SDS011;15926;51.348;6.596;2023-07-28T06:36:26;8.43;;;4.50;;
28774;SDS011;15926;51.348;6.596;2023-07-28T06:38:52;7.72;;;5.43;;
28774;SDS011;15926;51.348;6.596;2023-07-28T06:41:20;7.18;;;5.07;;
28774;SDS011;15926;51.348;6.596;2023-07-28T06:43:46;6.28;;;5.05;;
28774;SDS011;15926;51.348;6.596;2023-07-28T06:46:14;9.55;;;6.28;;
28774;SDS011;15926;51.348;6.596;2023-07-28T06:48:40;8.45;;;6.05;;
28774;SDS011;15926;51.348;6.596;2023-07-28T06:51:06;7.82;;;5.40;;
28774;SDS011;15926;51.348;6.596;2023-07-28T06:53:32;6.53;;;5.85;;
28774;SDS011;15926;51.348;6.596;2023-07-28T06:55:59;6.70;;;5.70;;
28774;SDS011;15926;51.348;6.596;2023-07-28T06:58:25;5.75;;;5.13;;
28774;SDS011;15926;51.348;6.596;2023-07-28T07:00:51;7.43;;;5.35;;
28774;SDS011;15926;51.348;6.596;2023-07-28T07:03:20;6.55;;;5.20;;
28774;SDS011;15926;51.348;6.596;2023-07-28T07:05:48;5.88;;;4.28;;
28774;SDS011;15926;51.348;6.596;2023-07-28T07:08:14;5.32;;;4.82;;
28774;SDS011;15926;51.348;6.596;2023-07-28T07:10:39;5.28;;;4.50;;
28774;SDS011;15926;51.348;6.596;2023-07-28T07:13:06;7.32;;;4.10;;
28774;SDS011;15926;51.348;6.596;2023-07-28T07:15:33;4.43;;;3.88;;
28774;SDS011;15926;51.348;6.596;2023-07-28T07:18:00;5.75;;;4.00;;
28774;SDS011;15926;51.348;6.596;2023-07-28T07:20:26;4.13;;;3.72;;
28774;SDS011;15926;51.348;6.596;2023-07-28T07:22:52;4.65;;;4.10;;
28774;SDS011;15926;51.348;6.596;2023-07-28T07:25:18;4.13;;;3.72;;
28774;SDS011;15926;51.348;6.596;2023-07-28T07:27:44;4.57;;;4.15;;
28774;SDS011;15926;51.348;6.596;2023-07-28T07:30:10;4.20;;;3.80;;
28774;SDS011;15926;51.348;6.596;2023-07-28T07:32:36;4.28;;;3.88;;
28774;SDS011;15926;51.348;6.596;2023-07-28T07:35:02;4.38;;;3.97;;
28774;SDS011;15926;51.348;6.596;2023-07-28T07:37:28;3.80;;;3.58;;
28774;SDS011;15926;51.348;6.596;2023-07-28T07:39:56;3.63;;;3.33;;
28774;SDS011;15926;51.348;6.596;2023-07-28T07:42:25;3.85;;;3.55;;
28774;SDS011;15926;51.348;6.596;2023-07-28T07:44:51;5.95;;;3.25;;
28774;SDS011;15926;51.348;6.596;2023-07-28T07:47:17;6.25;;;3.30;;
28774;SDS011;15926;51.348;6.596;2023-07-28T07:49:43;3.85;;;3.15;;
28774;SDS011;15926;51.348;6.596;2023-07-28T07:52:09;3.53;;;2.83;;
28774;SDS011;15926;51.348;6.596;2023-07-28T07:54:35;3.17;;;2.88;;
28774;SDS011;15926;51.348;6.596;2023-07-28T07:57:01;2.60;;;2.40;;
28774;SDS011;15926;51.348;6.596;2023-07-28T07:59:28;2.78;;;2.47;;
28774;SDS011;15926;51.348;6.596;2023-07-28T08:01:56;3.08;;;2.30;;
28774;SDS011;15926;51.348;6.596;2023-07-28T08:04:25;2.45;;;2.05;;
28774;SDS011;15926;51.348;6.596;2023-07-28T08:06:52;1.98;;;1.73;;
28774;SDS011;15926;51.348;6.596;2023-07-28T08:09:19;1.85;;;1.75;;
28774;SDS011;15926;51.348;6.596;2023-07-28T08:11:45;2.60;;;2.40;;
28774;SDS011;15926;51.348;6.596;2023-07-28T08:14:14;2.28;;;2.10;;
28774;SDS011;15926;51.348;6.596;2023-07-28T08:16:40;2.50;;;1.65;;
28774;SDS011;15926;51.348;6.596;2023-07-28T08:19:06;1.75;;;1.60;;
28774;SDS011;15926;51.348;6.596;2023-07-28T08:21:32;3.65;;;2.15;;
28774;SDS011;15926;51.348;6.596;2023-07-28T08:26:27;2.25;;;1.83;;
28774;SDS011;15926;51.348;6.596;2023-07-28T08:28:53;2.40;;;2.20;;
28774;SDS011;15926;51.348;6.596;2023-07-28T08:31:19;2.38;;;2.17;;
28774;SDS011;15926;51.348;6.596;2023-07-28T08:33:45;2.88;;;2.60;;
28774;SDS011;15926;51.348;6.596;2023-07-28T08:36:12;2.80;;;2.60;;
28774;SDS011;15926;51.348;6.596;2023-07-28T08:38:38;3.03;;;2.72;;
28774;SDS011;15926;51.348;6.596;2023-07-28T08:41:04;5.40;;;2.97;;
28774;SDS011;15926;51.348;6.596;2023-07-28T08:43:30;3.03;;;2.72;;
28774;SDS011;15926;51.348;6.596;2023-07-28T08:45:56;4.20;;;2.92;;
28774;SDS011;15926;51.348;6.596;2023-07-28T08:48:23;3.17;;;2.97;;
28774;SDS011;15926;51.348;6.596;2023-07-28T08:50:49;4.60;;;3.13;;
28774;SDS011;15926;51.348;6.596;2023-07-28T08:53:16;4.28;;;2.95;;
28774;SDS011;15926;51.348;6.596;2023-07-28T08:55:42;2.83;;;2.63;;
28774;SDS011;15926;51.348;6.596;2023-07-28T08:58:18;7.38;;;3.17;;
28774;SDS011;15926;51.348;6.596;2023-07-28T09:00:48;2.58;;;2.45;;
28774;SDS011;15926;51.348;6.596;2023-07-28T09:03:15;2.50;;;2.30;;
28774;SDS011;15926;51.348;6.596;2023-07-28T09:05:42;2.25;;;2.15;;
28774;SDS011;15926;51.348;6.596;2023-07-28T09:08:08;2.20;;;2.10;;
28774;SDS011;15926;51.348;6.596;2023-07-28T09:10:47;3.42;;;2.05;;
28774;SDS011;15926;51.348;6.596;2023-07-28T09:13:15;1.83;;;1.73;;
28774;SDS011;15926;51.348;6.596;2023-07-28T09:15:41;2.38;;;2.17;;
28774;SDS011;15926;51.348;6.596;2023-07-28T09:18:11;4.28;;;1.80;;
28774;SDS011;15926;51.348;6.596;2023-07-28T09:20:38;1.98;;;1.80;;
28774;SDS011;15926;51.348;6.596;2023-07-28T09:23:04;2.50;;;1.90;;
28774;SDS011;15926;51.348;6.596;2023-07-28T09:25:32;2.47;;;1.90;;
28774;SDS011;15926;51.348;6.596;2023-07-28T09:27:58;1.92;;;1.70;;
28774;SDS011;15926;51.348;6.596;2023-07-28T09:30:25;2.08;;;1.50;;
28774;SDS011;15926;51.348;6.596;2023-07-28T09:32:54;1.63;;;1.52;;
28774;SDS011;15926;51.348;6.596;2023-07-28T09:35:21;2.28;;;1.60;;
28774;SDS011;15926;51.348;6.596;2023-07-28T09:37:48;2.20;;;1.65;;
28774;SDS011;15926;51.348;6.596;2023-07-28T09:40:20;2.00;;;1.85;;
28774;SDS011;15926;51.348;6.596;2023-07-28T09:42:46;2.03;;;1.63;;
28774;SDS011;15926;51.348;6.596;2023-07-28T09:45:18;3.05;;;1.48;;
28774;SDS011;15926;51.348;6.596;2023-07-28T09:47:45;1.30;;;1.20;;
28774;SDS011;15926;51.348;6.596;2023-07-28T09:50:12;1.23;;;1.10;;
28774;SDS011;15926;51.348;6.596;2023-07-28T09:52:43;1.33;;;1.17;;
28774;SDS011;15926;51.348;6.596;2023-07-28T09:55:11;2.40;;;1.80;;
28774;SDS011;15926;51.348;6.596;2023-07-28T09:57:50;2.45;;;1.88;;
28774;SDS011;15926;51.348;6.596;2023-07-28T10:00:16;2.22;;;2.13;;
28774;SDS011;15926;51.348;6.596;2023-07-28T10:02:43;2.00;;;1.85;;
28774;SDS011;15926;51.348;6.596;2023-07-28T10:05:10;2.30;;;2.05;;
28774;SDS011;15926;51.348;6.596;2023-07-28T10:07:38;2.33;;;1.70;;
28774;SDS011;15926;51.348;6.596;2023-07-28T10:10:05;1.73;;;1.60;;
28774;SDS011;15926;51.348;6.596;2023-07-28T10:12:39;1.70;;;1.60;;
28774;SDS011;15926;51.348;6.596;2023-07-28T10:15:06;1.30;;;1.20;;
28774;SDS011;15926;51.348;6.596;2023-07-28T10:17:33;1.67;;;1.58;;
28774;SDS011;15926;51.348;6.596;2023-07-28T10:20:03;3.72;;;1.30;;
28774;SDS011;15926;51.348;6.596;2023-07-28T10:22:33;2.25;;;1.13;;
28774;SDS011;15926;51.348;6.596;2023-07-28T10:25:08;1.60;;;1.23;;
28774;SDS011;15926;51.348;6.596;2023-07-28T10:27:36;1.92;;;1.40;;
28774;SDS011;15926;51.348;6.596;2023-07-28T10:30:03;1.63;;;1.52;;
28774;SDS011;15926;51.348;6.596;2023-07-28T10:32:39;1.60;;;1.50;;
28774;SDS011;15926;51.348;6.596;2023-07-28T10:35:06;2.38;;;1.20;;
28774;SDS011;15926;51.348;6.596;2023-07-28T10:37:32;2.22;;;1.33;;
28774;SDS011;15926;51.348;6.596;2023-07-28T10:42:46;1.10;;;1.10;;
28774;SDS011;15926;51.348;6.596;2023-07-28T10:45:12;1.27;;;0.88;;
28774;SDS011;15926;51.348;6.596;2023-07-28T10:47:38;1.75;;;0.70;;
28774;SDS011;15926;51.348;6.596;2023-07-28T10:50:05;1.30;;;0.90;;
28774;SDS011;15926;51.348;6.596;2023-07-28T10:52:31;0.90;;;0.75;;
28774;SDS011;15926;51.348;6.596;2023-07-28T10:54:57;0.75;;;0.75;;
28774;SDS011;15926;51.348;6.596;2023-07-28T10:57:23;1.27;;;1.02;;
28774;SDS011;15926;51.348;6.596;2023-07-28T10:59:51;0.88;;;0.88;;
28774;SDS011;15926;51.348;6.596;2023-07-28T11:02:17;1.00;;;0.90;;
28774;SDS011;15926;51.348;6.596;2023-07-28T11:04:46;1.05;;;0.85;;
28774;SDS011;15926;51.348;6.596;2023-07-28T11:07:12;3.83;;;1.30;;
28774;SDS011;15926;51.348;6.596;2023-07-28T11:09:38;4.20;;;1.08;;
28774;SDS011;15926;51.348;6.596;2023-07-28T11:12:07;2.70;;;1.42;;
28774;SDS011;15926;51.348;6.596;2023-07-28T11:14:35;2.45;;;1.20;;
28774;SDS011;15926;51.348;6.596;2023-07-28T11:17:01;0.90;;;0.90;;
28774;SDS011;15926;51.348;6.596;2023-07-28T11:19:27;1.77;;;1.13;;
28774;SDS011;15926;51.348;6.596;2023-07-28T11:21:54;2.65;;;0.80;;
28774;SDS011;15926;51.348;6.596;2023-07-28T11:24:21;1.80;;;0.80;;
28774;SDS011;15926;51.348;6.596;2023-07-28T11:26:48;0.63;;;0.60;;
28774;SDS011;15926;51.348;6.596;2023-07-28T11:29:15;0.80;;;0.70;;
28774;SDS011;15926;51.348;6.596;2023-07-28T11:31:41;0.45;;;0.45;;
28774;SDS011;15926;51.348;6.596;2023-07-28T11:34:13;0.73;;;0.68;;
28774;SDS011;15926;51.348;6.596;2023-07-28T11:36:40;1.88;;;0.70;;
28774;SDS011;15926;51.348;6.596;2023-07-28T11:39:07;0.50;;;0.50;;
28774;SDS011;15926;51.348;6.596;2023-07-28T11:41:33;0.68;;;0.60;;
28774;SDS011;15926;51.348;6.596;2023-07-28T11:43:59;0.70;;;0.70;;
28774;SDS011;15926;51.348;6.596;2023-07-28T11:49:08;5.78;;;0.45;;
28774;SDS011;15926;51.348;6.596;2023-07-28T11:51:38;1.27;;;0.30;;
28774;SDS011;15926;51.348;6.596;2023-07-28T11:54:05;0.40;;;0.40;;
28774;SDS011;15926;51.348;6.596;2023-07-28T11:56:32;0.52;;;0.43;;
28774;SDS011;15926;51.348;6.596;2023-07-28T11:58:59;0.40;;;0.40;;
28774;SDS011;15926;51.348;6.596;2023-07-28T12:01:25;0.57;;;0.35;;
28774;SDS011;15926;51.348;6.596;2023-07-28T12:03:51;0.43;;;0.40;;
28774;SDS011;15926;51.348;6.596;2023-07-28T12:06:16;0.90;;;0.30;;
28774;SDS011;15926;51.348;6.596;2023-07-28T12:08:42;1.58;;;0.45;;
28774;SDS011;15926;51.348;6.596;2023-07-28T12:11:15;0.52;;;0.52;;
28774;SDS011;15926;51.348;6.596;2023-07-28T12:13:51;0.70;;;0.40;;
28774;SDS011;15926;51.348;6.596;2023-07-28T12:19:02;0.30;;;0.30;;
28774;SDS011;15926;51.348;6.596;2023-07-28T12:21:29;0.68;;;0.40;;
28774;SDS011;15926;51.348;6.596;2023-07-28T12:23:56;0.40;;;0.40;;
28774;SDS011;15926;51.348;6.596;2023-07-28T12:26:22;0.47;;;0.32;;
28774;SDS011;15926;51.348;6.596;2023-07-28T12:28:48;0.30;;;0.30;;
28774;SDS011;15926;51.348;6.596;2023-07-28T12:31:14;0.47;;;0.47;;
28774;SDS011;15926;51.348;6.596;2023-07-28T12:33:40;0.55;;;0.40;;
28774;SDS011;15926;51.348;6.596;2023-07-28T12:36:06;1.23;;;0.60;;
28774;SDS011;15926;51.348;6.596;2023-07-28T12:38:32;0.68;;;0.40;;
28774;SDS011;15926;51.348;6.596;2023-07-28T12:40:58;1.05;;;0.40;;
28774;SDS011;15926;51.348;6.596;2023-07-28T12:43:24;0.40;;;0.40;;
28774;SDS011;15926;51.348;6.596;2023-07-28T12:45:51;0.30;;;0.30;;
28774;SDS011;15926;51.348;6.596;2023-07-28T12:48:18;0.30;;;0.30;;
28774;SDS011;15926;51.348;6.596;2023-07-28T12:50:44;0.50;;;0.50;;
28774;SDS011;15926;51.348;6.596;2023-07-28T12:53:11;0.85;;;0.50;;
28774;SDS011;15926;51.348;6.596;2023-07-28T12:55:37;0.32;;;0.32;;
28774;SDS011;15926;51.348;6.596;2023-07-28T12:58:03;0.35;;;0.35;;
28774;SDS011;15926;51.348;6.596;2023-07-28T13:00:29;0.40;;;0.40;;
28774;SDS011;15926;51.348;6.596;2023-07-28T13:02:55;0.30;;;0.30;;
28774;SDS011;15926;51.348;6.596;2023-07-28T13:05:21;0.55;;;0.50;;
28774;SDS011;15926;51.348;6.596;2023-07-28T13:07:47;1.10;;;0.30;;
28774;SDS011;15926;51.348;6.596;2023-07-28T13:10:13;1.10;;;0.50;;
28774;SDS011;15926;51.348;6.596;2023-07-28T13:12:39;1.80;;;0.52;;
28774;SDS011;15926;51.348;6.596;2023-07-28T13:15:05;0.45;;;0.43;;
28774;SDS011;15926;51.348;6.596;2023-07-28T13:17:31;0.93;;;0.50;;
28774;SDS011;15926;51.348;6.596;2023-07-28T13:19:57;1.88;;;0.40;;
28774;SDS011;15926;51.348;6.596;2023-07-28T13:22:23;1.58;;;0.40;;
28774;SDS011;15926;51.348;6.596;2023-07-28T13:24:51;2.08;;;0.50;;
28774;SDS011;15926;51.348;6.596;2023-07-28T13:27:17;0.50;;;0.50;;
28774;SDS011;15926;51.348;6.596;2023-07-28T13:29:43;0.40;;;0.30;;
28774;SDS011;15926;51.348;6.596;2023-07-28T13:32:22;0.40;;;0.40;;
28774;SDS011;15926;51.348;6.596;2023-07-28T13:37:14;1.70;;;0.50;;
28774;SDS011;15926;51.348;6.596;2023-07-28T13:39:41;0.40;;;0.40;;
28774;SDS011;15926;51.348;6.596;2023-07-28T13:42:07;0.70;;;0.40;;
28774;SDS011;15926;51.348;6.596;2023-07-28T13:44:33;0.57;;;0.50;;
28774;SDS011;15926;51.348;6.596;2023-07-28T13:46:59;0.60;;;0.50;;
28774;SDS011;15926;51.348;6.596;2023-07-28T13:49:25;0.40;;;0.40;;
28774;SDS011;15926;51.348;6.596;2023-07-28T13:51:51;0.77;;;0.40;;
28774;SDS011;15926;51.348;6.596;2023-07-28T13:54:17;0.60;;;0.50;;
28774;SDS011;15926;51.348;6.596;2023-07-28T13:56:43;1.08;;;0.55;;
28774;SDS011;15926;51.348;6.596;2023-07-28T13:59:09;0.47;;;0.47;;
28774;SDS011;15926;51.348;6.596;2023-07-28T14:01:35;0.65;;;0.55;;
28774;SDS011;15926;51.348;6.596;2023-07-28T14:04:01;0.50;;;0.50;;
28774;SDS011;15926;51.348;6.596;2023-07-28T14:06:27;0.40;;;0.40;;
28774;SDS011;15926;51.348;6.596;2023-07-28T14:08:53;4.32;;;0.55;;
28774;SDS011;15926;51.348;6.596;2023-07-28T14:11:19;0.45;;;0.45;;
28774;SDS011;15926;51.348;6.596;2023-07-28T14:13:45;0.52;;;0.50;;
28774;SDS011;15926;51.348;6.596;2023-07-28T14:16:11;0.82;;;0.50;;
28774;SDS011;15926;51.348;6.596;2023-07-28T14:18:37;1.85;;;0.50;;
28774;SDS011;15926;51.348;6.596;2023-07-28T14:21:05;0.40;;;0.40;;
28774;SDS011;15926;51.348;6.596;2023-07-28T14:23:31;0.50;;;0.50;;
28774;SDS011;15926;51.348;6.596;2023-07-28T14:25:57;1.02;;;0.50;;
28774;SDS011;15926;51.348;6.596;2023-07-28T14:28:23;0.50;;;0.50;;
28774;SDS011;15926;51.348;6.596;2023-07-28T14:30:50;0.40;;;0.40;;
28774;SDS011;15926;51.348;6.596;2023-07-28T14:33:17;1.33;;;0.50;;
28774;SDS011;15926;51.348;6.596;2023-07-28T14:35:43;1.20;;;0.43;;
28774;SDS011;15926;51.348;6.596;2023-07-28T14:38:10;0.80;;;0.50;;
28774;SDS011;15926;51.348;6.596;2023-07-28T14:40:36;0.95;;;0.55;;
28774;SDS011;15926;51.348;6.596;2023-07-28T14:43:03;0.50;;;0.50;;
28774;SDS011;15926;51.348;6.596;2023-07-28T14:45:29;0.50;;;0.50;;
28774;SDS011;15926;51.348;6.596;2023-07-28T14:47:55;0.55;;;0.50;;
28774;SDS011;15926;51.348;6.596;2023-07-28T14:50:21;1.15;;;0.60;;
28774;SDS011;15926;51.348;6.596;2023-07-28T14:52:48;0.43;;;0.43;;
28774;SDS011;15926;51.348;6.596;2023-07-28T14:55:14;1.48;;;0.60;;
28774;SDS011;15926;51.348;6.596;2023-07-28T14:57:40;0.60;;;0.60;;
28774;SDS011;15926;51.348;6.596;2023-07-28T15:00:06;0.80;;;0.80;;
28774;SDS011;15926;51.348;6.596;2023-07-28T15:02:35;8.20;;;0.95;;
28774;SDS011;15926;51.348;6.596;2023-07-28T15:05:01;2.25;;;0.98;;
28774;SDS011;15926;51.348;6.596;2023-07-28T15:07:27;0.70;;;0.70;;
28774;SDS011;15926;51.348;6.596;2023-07-28T15:09:53;1.33;;;1.08;;
28774;SDS011;15926;51.348;6.596;2023-07-28T15:12:19;1.35;;;0.70;;
28774;SDS011;15926;51.348;6.596;2023-07-28T15:14:45;1.45;;;1.00;;
28774;SDS011;15926;51.348;6.596;2023-07-28T15:17:11;0.85;;;0.85;;
28774;SDS011;15926;51.348;6.596;2023-07-28T15:19:37;7.25;;;1.13;;
28774;SDS011;15926;51.348;6.596;2023-07-28T15:22:03;1.73;;;0.70;;
28774;SDS011;15926;51.348;6.596;2023-07-28T15:24:29;0.63;;;0.63;;
28774;SDS011;15926;51.348;6.596;2023-07-28T15:26:55;0.70;;;0.70;;
28774;SDS011;15926;51.348;6.596;2023-07-28T15:29:21;0.95;;;0.70;;
28774;SDS011;15926;51.348;6.596;2023-07-28T15:31:47;0.98;;;0.77;;
28774;SDS011;15926;51.348;6.596;2023-07-28T15:34:13;1.45;;;0.80;;
28774;SDS011;15926;51.348;6.596;2023-07-28T15:36:39;3.33;;;0.88;;
28774;SDS011;15926;51.348;6.596;2023-07-28T15:39:05;2.15;;;0.90;;
28774;SDS011;15926;51.348;6.596;2023-07-28T15:41:31;1.20;;;0.90;;
28774;SDS011;15926;51.348;6.596;2023-07-28T15:43:57;0.82;;;0.82;;
28774;SDS011;15926;51.348;6.596;2023-07-28T15:46:23;2.83;;;1.02;;
28774;SDS011;15926;51.348;6.596;2023-07-28T15:48:49;0.98;;;0.98;;
28774;SDS011;15926;51.348;6.596;2023-07-28T15:51:15;1.95;;;0.90;;
28774;SDS011;15926;51.348;6.596;2023-07-28T15:53:41;3.50;;;1.10;;
28774;SDS011;15926;51.348;6.596;2023-07-28T15:56:07;0.88;;;0.88;;
28774;SDS011;15926;51.348;6.596;2023-07-28T15:58:33;1.45;;;1.05;;
28774;SDS011;15926;51.348;6.596;2023-07-28T16:00:59;1.92;;;1.23;;
28774;SDS011;15926;51.348;6.596;2023-07-28T16:03:26;1.25;;;1.00;;
28774;SDS011;15926;51.348;6.596;2023-07-28T16:05:52;1.10;;;1.10;;
28774;SDS011;15926;51.348;6.596;2023-07-28T16:08:18;1.00;;;1.00;;
28774;SDS011;15926;51.348;6.596;2023-07-28T16:10:44;1.10;;;1.10;;
28774;SDS011;15926;51.348;6.596;2023-07-28T16:13:10;1.15;;;0.90;;
28774;SDS011;15926;51.348;6.596;2023-07-28T16:15:36;1.85;;;0.93;;
28774;SDS011;15926;51.348;6.596;2023-07-28T16:18:02;3.42;;;1.30;;
28774;SDS011;15926;51.348;6.596;2023-07-28T16:20:28;1.45;;;1.00;;
28774;SDS011;15926;51.348;6.596;2023-07-28T16:22:54;1.95;;;1.15;;
28774;SDS011;15926;51.348;6.596;2023-07-28T16:25:20;1.52;;;1.42;;
28774;SDS011;15926;51.348;6.596;2023-07-28T16:27:46;1.52;;;0.98;;
28774;SDS011;15926;51.348;6.596;2023-07-28T16:30:12;1.40;;;1.30;;
28774;SDS011;15926;51.348;6.596;2023-07-28T16:32:38;1.20;;;1.10;;
28774;SDS011;15926;51.348;6.596;2023-07-28T16:35:05;0.98;;;0.98;;
28774;SDS011;15926;51.348;6.596;2023-07-28T16:37:31;1.33;;;1.00;;
28774;SDS011;15926;51.348;6.596;2023-07-28T16:39:57;0.85;;;0.85;;
28774;SDS011;15926;51.348;6.596;2023-07-28T16:42:23;1.25;;;0.93;;
28774;SDS011;15926;51.348;6.596;2023-07-28T16:44:49;1.85;;;1.75;;
28774;SDS011;15926;51.348;6.596;2023-07-28T16:47:15;1.75;;;1.48;;
28774;SDS011;15926;51.348;6.596;2023-07-28T16:49:44;1.75;;;1.30;;
28774;SDS011;15926;51.348;6.596;2023-07-28T16:52:10;2.35;;;1.23;;
28774;SDS011;15926;51.348;6.596;2023-07-28T16:54:36;1.25;;;1.15;;
28774;SDS011;15926;51.348;6.596;2023-07-28T16:57:02;1.35;;;0.93;;
28774;SDS011;15926;51.348;6.596;2023-07-28T16:59:28;1.20;;;1.10;;
28774;SDS011;15926;51.348;6.596;2023-07-28T17:01:54;1.63;;;1.13;;
28774;SDS011;15926;51.348;6.596;2023-07-28T17:04:20;1.60;;;1.23;;
28774;SDS011;15926;51.348;6.596;2023-07-28T17:06:46;1.10;;;1.10;;
28774;SDS011;15926;51.348;6.596;2023-07-28T17:09:12;1.52;;;1.42;;
28774;SDS011;15926;51.348;6.596;2023-07-28T17:11:38;0.95;;;0.95;;
28774;SDS011;15926;51.348;6.596;2023-07-28T17:14:03;1.25;;;1.15;;
28774;SDS011;15926;51.348;6.596;2023-07-28T17:16:29;2.38;;;1.10;;
28774;SDS011;15926;51.348;6.596;2023-07-28T17:18:55;1.25;;;1.15;;
28774;SDS011;15926;51.348;6.596;2023-07-28T17:21:21;1.30;;;1.17;;
28774;SDS011;15926;51.348;6.596;2023-07-28T17:23:47;1.52;;;0.90;;
28774;SDS011;15926;51.348;6.596;2023-07-28T17:26:13;1.63;;;1.00;;
28774;SDS011;15926;51.348;6.596;2023-07-28T17:28:39;2.15;;;1.25;;
28774;SDS011;15926;51.348;6.596;2023-07-28T17:31:05;1.27;;;1.10;;
28774;SDS011;15926;51.348;6.596;2023-07-28T17:33:31;1.48;;;1.33;;
28774;SDS011;15926;51.348;6.596;2023-07-28T17:35:57;1.58;;;1.10;;
28774;SDS011;15926;51.348;6.596;2023-07-28T17:38:25;1.73;;;1.52;;
28774;SDS011;15926;51.348;6.596;2023-07-28T17:40:53;1.75;;;1.48;;
28774;SDS011;15926;51.348;6.596;2023-07-28T17:43:19;2.03;;;1.30;;
28774;SDS011;15926;51.348;6.596;2023-07-28T17:45:45;1.40;;;1.30;;
28774;SDS011;15926;51.348;6.596;2023-07-28T17:48:12;1.77;;;1.20;;
28774;SDS011;15926;51.348;6.596;2023-07-28T17:50:39;1.60;;;1.50;;
28774;SDS011;15926;51.348;6.596;2023-07-28T17:53:05;4.47;;;1.52;;
28774;SDS011;15926;51.348;6.596;2023-07-28T17:55:31;1.95;;;1.85;;
28774;SDS011;15926;51.348;6.596;2023-07-28T17:57:57;1.83;;;1.42;;
28774;SDS011;15926;51.348;6.596;2023-07-28T18:00:24;1.50;;;1.40;;
28774;SDS011;15926;51.348;6.596;2023-07-28T18:02:50;2.13;;;1.70;;
28774;SDS011;15926;51.348;6.596;2023-07-28T18:05:16;1.30;;;1.20;;
28774;SDS011;15926;51.348;6.596;2023-07-28T18:07:42;2.53;;;1.20;;
28774;SDS011;15926;51.348;6.596;2023-07-28T18:10:09;2.95;;;1.55;;
28774;SDS011;15926;51.348;6.596;2023-07-28T18:12:35;1.95;;;1.63;;
28774;SDS011;15926;51.348;6.596;2023-07-28T18:15:01;1.92;;;1.50;;
28774;SDS011;15926;51.348;6.596;2023-07-28T18:17:27;4.35;;;1.73;;
28774;SDS011;15926;51.348;6.596;2023-07-28T18:19:53;2.60;;;1.55;;
28774;SDS011;15926;51.348;6.596;2023-07-28T18:22:19;2.13;;;1.95;;
28774;SDS011;15926;51.348;6.596;2023-07-28T18:24:45;3.33;;;1.92;;
28774;SDS011;15926;51.348;6.596;2023-07-28T18:27:11;2.05;;;1.70;;
28774;SDS011;15926;51.348;6.596;2023-07-28T18:29:38;1.50;;;1.40;;
28774;SDS011;15926;51.348;6.596;2023-07-28T18:32:05;2.20;;;1.60;;
28774;SDS011;15926;51.348;6.596;2023-07-28T18:34:31;3.40;;;1.30;;
28774;SDS011;15926;51.348;6.596;2023-07-28T18:36:57;2.03;;;1.80;;
28774;SDS011;15926;51.348;6.596;2023-07-28T18:39:23;1.58;;;1.48;;
28774;SDS011;15926;51.348;6.596;2023-07-28T18:41:49;3.17;;;1.88;;
28774;SDS011;15926;51.348;6.596;2023-07-28T18:44:15;1.50;;;1.40;;
28774;SDS011;15926;51.348;6.596;2023-07-28T18:46:44;2.53;;;1.63;;
28774;SDS011;15926;51.348;6.596;2023-07-28T18:49:10;1.88;;;1.70;;
28774;SDS011;15926;51.348;6.596;2023-07-28T18:51:36;2.88;;;1.20;;
28774;SDS011;15926;51.348;6.596;2023-07-28T18:54:03;3.80;;;1.52;;
28774;SDS011;15926;51.348;6.596;2023-07-28T18:56:29;1.63;;;1.40;;
28774;SDS011;15926;51.348;6.596;2023-07-28T18:58:55;2.40;;;1.45;;